createdAt,value
2017-07-04T00:00:00.021Z,84.97
2017-07-04T00:00:59.678Z,85.12
2017-07-04T00:01:59.986Z,85.02
2017-07-04T00:02:59.650Z,84.58
2017-07-04T00:03:59.976Z,84.64
2017-07-04T00:05:00.044Z,84.16
2017-07-04T00:05:59.736Z,84.74
2017-07-04T00:06:59.637Z,85.5
2017-07-04T00:07:59.643Z,85.69
2017-07-04T00:08:59.953Z,85.31
2017-07-04T00:09:59.926Z,85.02
2017-07-04T00:10:59.959Z,85.02
2017-07-04T00:11:59.949Z,85.5
2017-07-04T00:12:59.618Z,85.69
2017-07-04T00:13:59.953Z,85.69
2017-07-04T00:14:59.943Z,86.46
2017-07-04T00:15:59.906Z,85.79
2017-07-04T00:16:59.876Z,86.08
2017-07-04T00:17:59.600Z,86.55
2017-07-04T00:18:59.603Z,86.27
2017-07-04T00:19:59.593Z,86.41
2017-07-04T00:20:59.920Z,86.36
2017-07-04T00:21:59.926Z,85.88
2017-07-04T00:22:59.910Z,85.88
2017-07-04T00:23:59.579Z,86.65
2017-07-04T00:24:59.907Z,87.23
2017-07-04T00:26:00.353Z,87.32
2017-07-04T00:26:59.591Z,87.8
2017-07-04T00:27:59.564Z,87.41
2017-07-04T00:28:59.908Z,87.61
2017-07-04T00:29:59.580Z,87.41
2017-07-04T00:30:59.553Z,87.03
2017-07-04T00:31:59.552Z,87.03
2017-07-04T00:32:59.881Z,86.84
2017-07-04T00:33:59.545Z,87.41
2017-07-04T00:34:59.871Z,86.74
2017-07-04T00:35:59.565Z,85.79
2017-07-04T00:36:59.865Z,85.79
2017-07-04T00:37:59.530Z,86.65
2017-07-04T00:38:59.866Z,86.55
2017-07-04T00:39:59.823Z,86.55
2017-07-04T00:40:59.846Z,86.46
2017-07-04T00:41:59.514Z,86.74
2017-07-04T00:42:59.843Z,87.03
2017-07-04T00:43:59.508Z,86.65
2017-07-04T00:44:59.505Z,86.65
2017-07-04T00:45:59.500Z,86.94
2017-07-04T00:46:59.500Z,86.65
2017-07-04T00:47:59.504Z,86.65
2017-07-04T00:48:59.833Z,86.84
2017-07-04T00:49:59.815Z,86.84
2017-07-04T00:50:59.481Z,86.74
2017-07-04T00:51:59.478Z,86.84
2017-07-04T00:52:59.812Z,87.32
2017-07-04T00:53:59.471Z,87.61
2017-07-04T00:54:59.818Z,87.13
2017-07-04T00:55:59.465Z,87.32
2017-07-04T00:56:59.460Z,88.28
2017-07-04T00:57:59.465Z,87.61
2017-07-04T00:58:59.475Z,87.23
2017-07-04T00:59:59.451Z,87.99
2017-07-04T01:00:59.446Z,88.76
2017-07-04T01:01:59.441Z,88.18
2017-07-04T01:02:59.764Z,88.37
2017-07-04T01:03:59.434Z,88.18
2017-07-04T01:04:59.758Z,88.18
2017-07-04T01:05:59.427Z,88.09
2017-07-04T01:06:59.423Z,87.61
2017-07-04T01:07:59.420Z,86.94
2017-07-04T01:08:59.433Z,87.41
2017-07-04T01:09:59.414Z,86.55
2017-07-04T01:10:59.408Z,86.55
2017-07-04T01:11:59.405Z,85.5
2017-07-04T01:12:59.423Z,85.6
2017-07-04T01:13:59.399Z,85.79
2017-07-04T01:14:59.407Z,85.41
2017-07-04T01:15:59.389Z,84.55
2017-07-04T01:16:59.714Z,85.21
2017-07-04T01:17:59.386Z,84.83
2017-07-04T01:18:59.391Z,84.45
2017-07-04T01:19:59.376Z,84.74
2017-07-04T01:20:59.370Z,83.68
2017-07-04T01:21:59.371Z,83.2
2017-07-04T01:22:59.374Z,83.39
2017-07-04T01:23:59.706Z,83.2
2017-07-04T01:24:59.355Z,83.39
2017-07-04T01:25:59.351Z,83.2
2017-07-04T01:26:59.348Z,83.87
2017-07-04T01:27:59.684Z,83.68
2017-07-04T01:28:59.358Z,83.78
2017-07-04T01:29:59.335Z,82.34
2017-07-04T01:30:59.662Z,80.71
2017-07-04T01:31:59.330Z,81.38
2017-07-04T01:32:59.656Z,80.62
2017-07-04T01:33:59.678Z,80.14
2017-07-04T01:34:59.318Z,80.52
2017-07-04T01:35:59.315Z,79.66
2017-07-04T01:36:59.639Z,78.7
2017-07-04T01:37:59.637Z,78.13
2017-07-04T01:38:59.322Z,78.51
2017-07-04T01:39:59.648Z,77.84
2017-07-04T01:40:59.312Z,78.32
2017-07-04T01:41:59.631Z,78.32
2017-07-04T01:42:59.288Z,78.42
2017-07-04T01:43:59.284Z,78.51
2017-07-04T01:44:59.615Z,78.03
2017-07-04T01:45:59.278Z,79.18
2017-07-04T01:46:59.291Z,80.04
2017-07-04T01:47:59.268Z,80.04
2017-07-04T01:48:59.267Z,78.51
2017-07-04T01:49:59.274Z,78.8
2017-07-04T01:50:59.257Z,78.03
2017-07-04T01:51:59.583Z,78.03
2017-07-04T01:52:59.577Z,78.61
2017-07-04T01:53:59.246Z,79.08
2017-07-04T01:54:59.261Z,79.57
2017-07-04T01:55:59.569Z,79.18
2017-07-04T01:56:59.234Z,79.57
2017-07-04T01:57:59.245Z,79.75
2017-07-04T01:58:59.226Z,80.81
2017-07-04T01:59:59.551Z,80.04
2017-07-04T02:00:59.557Z,80.14
2017-07-04T02:01:59.216Z,80.52
2017-07-04T02:02:59.210Z,80.43
2017-07-04T02:03:59.205Z,80.81
2017-07-04T02:04:59.220Z,81.2
2017-07-04T02:05:59.200Z,81.29
2017-07-04T02:06:59.198Z,81.82
2017-07-04T02:07:59.544Z,82.24
2017-07-04T02:08:59.519Z,82.2
2017-07-04T02:09:59.531Z,83.16
2017-07-04T02:10:59.516Z,82.63
2017-07-04T02:11:59.177Z,82.4
2017-07-04T02:12:59.173Z,82.4
2017-07-04T02:13:59.168Z,82.68
2017-07-04T02:14:59.164Z,83.06
2017-07-04T02:15:59.162Z,82.97
2017-07-04T02:16:59.158Z,83.06
2017-07-04T02:17:59.481Z,83.73
2017-07-04T02:18:59.479Z,83.83
2017-07-04T02:19:59.479Z,84.12
2017-07-04T02:20:59.160Z,83.93
2017-07-04T02:21:59.488Z,83.83
2017-07-04T02:22:59.479Z,83.64
2017-07-04T02:23:59.130Z,83.16
2017-07-04T02:24:59.127Z,83.83
2017-07-04T02:25:59.121Z,83.54
2017-07-04T02:26:59.128Z,83.64
2017-07-04T02:27:59.112Z,83.83
2017-07-04T02:28:59.440Z,83.64
2017-07-04T02:29:59.105Z,82.97
2017-07-04T02:30:59.110Z,82.87
2017-07-04T02:31:59.098Z,83.45
2017-07-04T02:32:59.092Z,83.64
2017-07-04T02:33:59.435Z,83.93
2017-07-04T02:34:59.084Z,84.79
2017-07-04T02:35:59.079Z,84.41
2017-07-04T02:36:59.077Z,84.94
2017-07-04T02:37:59.401Z,85.22
2017-07-04T02:38:59.397Z,85.32
2017-07-04T02:39:59.064Z,85.41
2017-07-04T02:40:59.062Z,85.71
2017-07-04T02:41:59.384Z,83.79
2017-07-04T02:42:59.052Z,83.6
2017-07-04T02:43:59.047Z,83.79
2017-07-04T02:44:59.375Z,83.12
2017-07-04T02:45:59.041Z,82.45
2017-07-04T02:46:59.048Z,83.5
2017-07-04T02:47:59.357Z,83.69
2017-07-04T02:48:59.356Z,83.6
2017-07-04T02:49:59.350Z,83.31
2017-07-04T02:50:59.436Z,83.69
2017-07-04T02:51:59.036Z,83.6
2017-07-04T02:52:59.340Z,83.4
2017-07-04T02:53:59.006Z,83.69
2017-07-04T02:54:59.332Z,82.93
2017-07-04T02:55:58.996Z,83.03
2017-07-04T02:56:59.007Z,83.5
2017-07-04T02:57:59.003Z,84.17
2017-07-04T02:58:58.987Z,84.27
2017-07-04T02:59:58.987Z,84.17
2017-07-04T03:00:58.988Z,85.13
2017-07-04T03:01:58.973Z,85.32
2017-07-04T03:02:58.967Z,85.71
2017-07-04T03:03:58.962Z,86.28
2017-07-04T03:04:59.327Z,86.47
2017-07-04T03:05:59.282Z,86.66
2017-07-04T03:06:59.289Z,87.43
2017-07-04T03:07:59.274Z,88.38
2017-07-04T03:08:58.939Z,88.67
2017-07-04T03:09:58.938Z,88.62
2017-07-04T03:10:59.260Z,88.24
2017-07-04T03:11:58.945Z,89.67
2017-07-04T03:12:59.271Z,90.96
2017-07-04T03:13:59.270Z,90.01
2017-07-04T03:14:59.290Z,89.53
2017-07-04T03:15:58.908Z,89.87
2017-07-04T03:16:58.942Z,90.25
2017-07-04T03:17:59.227Z,91.2
2017-07-04T03:18:58.904Z,91.3
2017-07-04T03:19:58.902Z,90.92
2017-07-04T03:20:59.312Z,90.63
2017-07-04T03:21:59.248Z,90.34
2017-07-04T03:22:59.218Z,89.53
2017-07-04T03:23:59.204Z,89.1
2017-07-04T03:24:58.871Z,88.43
2017-07-04T03:25:58.865Z,89.1
2017-07-04T03:26:58.864Z,89.48
2017-07-04T03:27:59.185Z,89.48
2017-07-04T03:28:59.188Z,89.39
2017-07-04T03:29:58.864Z,89.34
2017-07-04T03:30:59.171Z,88.72
2017-07-04T03:31:58.858Z,90.44
2017-07-04T03:32:59.179Z,91.3
2017-07-04T03:33:59.161Z,90.34
2017-07-04T03:34:58.824Z,89.58
2017-07-04T03:35:58.822Z,89.15
2017-07-04T03:36:59.147Z,88.62
2017-07-04T03:37:58.812Z,88.43
2017-07-04T03:38:58.814Z,89.43
2017-07-04T03:39:59.135Z,88.48
2017-07-04T03:40:58.823Z,88.38
2017-07-04T03:41:58.797Z,88.38
2017-07-04T03:42:58.791Z,86.57
2017-07-04T03:43:58.786Z,84.36
2017-07-04T03:44:58.782Z,85.03
2017-07-04T03:45:58.778Z,85.32
2017-07-04T03:46:58.773Z,85.32
2017-07-04T03:47:58.795Z,85.03
2017-07-04T03:48:59.657Z,85.32
2017-07-04T03:49:59.091Z,84.36
2017-07-04T03:50:58.847Z,83.5
2017-07-04T03:51:58.751Z,83.6
2017-07-04T03:52:59.089Z,83.98
2017-07-04T03:53:59.043Z,85.03
2017-07-04T03:54:59.067Z,85.41
2017-07-04T03:55:58.732Z,84.17
2017-07-04T03:56:58.730Z,84.55
2017-07-04T03:57:58.729Z,84.41
2017-07-04T03:58:58.726Z,82.93
2017-07-04T03:59:58.714Z,83.26
2017-07-04T04:00:58.710Z,83.69
2017-07-04T04:01:59.050Z,85.17
2017-07-04T04:02:59.061Z,84.22
2017-07-04T04:03:58.698Z,84.22
2017-07-04T04:04:58.691Z,83.64
2017-07-04T04:05:58.698Z,83.36
2017-07-04T04:06:58.707Z,83.54
2017-07-04T04:07:58.679Z,84.02
2017-07-04T04:08:58.676Z,84.69
2017-07-04T04:09:58.672Z,83.45
2017-07-04T04:10:59.016Z,82.97
2017-07-04T04:11:59.008Z,82.78
2017-07-04T04:12:58.658Z,82.97
2017-07-04T04:13:58.653Z,82.68
2017-07-04T04:14:58.651Z,82.49
2017-07-04T04:15:58.995Z,83.16
2017-07-04T04:16:58.662Z,82.59
2017-07-04T04:17:58.964Z,82.78
2017-07-04T04:18:58.640Z,82.4
2017-07-04T04:19:58.630Z,82.11
2017-07-04T04:20:58.624Z,82.4
2017-07-04T04:21:58.948Z,81.82
2017-07-04T04:22:58.947Z,81.15
2017-07-04T04:23:58.613Z,80.96
2017-07-04T04:24:58.610Z,80.48
2017-07-04T04:25:58.602Z,80.77
2017-07-04T04:26:58.598Z,81.44
2017-07-04T04:27:58.595Z,80.58
2017-07-04T04:28:58.593Z,80.87
2017-07-04T04:29:58.951Z,80.48
2017-07-04T04:30:58.911Z,79.52
2017-07-04T04:31:58.578Z,79.75
2017-07-04T04:32:58.573Z,79.47
2017-07-04T04:33:58.571Z,78.99
2017-07-04T04:34:58.566Z,78.99
2017-07-04T04:35:58.560Z,79.18
2017-07-04T04:36:58.893Z,79.47
2017-07-04T04:37:58.553Z,80.14
2017-07-04T04:38:58.879Z,79.66
2017-07-04T04:39:58.564Z,78.89
2017-07-04T04:40:58.869Z,79.08
2017-07-04T04:41:58.536Z,79.57
2017-07-04T04:42:58.880Z,79.47
2017-07-04T04:43:58.857Z,80.24
2017-07-04T04:44:58.525Z,80.04
2017-07-04T04:45:58.522Z,80.33
2017-07-04T04:46:58.537Z,80.33
2017-07-04T04:47:58.512Z,81
2017-07-04T04:48:58.507Z,81.25
2017-07-04T04:49:58.836Z,80.9
2017-07-04T04:50:58.499Z,81
2017-07-04T04:51:58.845Z,80.52
2017-07-04T04:52:58.493Z,80.52
2017-07-04T04:53:58.489Z,81.2
2017-07-04T04:54:58.486Z,81.67
2017-07-04T04:55:58.493Z,83.2
2017-07-04T04:56:58.476Z,83.49
2017-07-04T04:57:58.803Z,83.11
2017-07-04T04:58:58.815Z,82.73
2017-07-04T04:59:58.471Z,82.92
2017-07-04T05:00:58.787Z,82.53
2017-07-04T05:01:58.456Z,81.86
2017-07-04T05:02:58.453Z,82.43
2017-07-04T05:03:58.781Z,82.43
2017-07-04T05:04:58.774Z,80.62
2017-07-04T05:05:58.768Z,80.9
2017-07-04T05:06:58.439Z,81.48
2017-07-04T05:07:58.433Z,80.33
2017-07-04T05:08:58.428Z,80.14
2017-07-04T05:09:58.432Z,80.33
2017-07-04T05:10:58.479Z,80.04
2017-07-04T05:11:58.420Z,80.14
2017-07-04T05:12:58.413Z,80.04
2017-07-04T05:13:58.412Z,80.33
2017-07-04T05:14:58.407Z,79.75
2017-07-04T05:15:58.403Z,79.66
2017-07-04T05:16:58.459Z,79.47
2017-07-04T05:17:58.396Z,78.99
2017-07-04T05:18:58.394Z,78.89
2017-07-04T05:19:58.389Z,80.04
2017-07-04T05:20:58.713Z,80.33
2017-07-04T05:21:58.402Z,79.75
2017-07-04T05:22:58.383Z,79.47
2017-07-04T05:23:58.375Z,78.99
2017-07-04T05:24:58.371Z,79.28
2017-07-04T05:25:58.367Z,79.57
2017-07-04T05:26:58.361Z,80.04
2017-07-04T05:27:58.692Z,80.33
2017-07-04T05:28:58.690Z,80.52
2017-07-04T05:29:58.351Z,80.24
2017-07-04T05:30:58.360Z,80.33
2017-07-04T05:31:58.362Z,80.52
2017-07-04T05:32:58.340Z,81
2017-07-04T05:33:58.341Z,79.37
2017-07-04T05:34:58.663Z,78.61
2017-07-04T05:35:58.656Z,78.99
2017-07-04T05:36:58.663Z,79.47
2017-07-04T05:37:58.340Z,80.52
2017-07-04T05:38:58.315Z,80.62
2017-07-04T05:39:58.313Z,82.06
2017-07-04T05:40:58.637Z,81.67
2017-07-04T05:41:58.319Z,81.38
2017-07-04T05:42:58.303Z,79.95
2017-07-04T05:43:58.625Z,80.04
2017-07-04T05:44:58.623Z,79.75
2017-07-04T05:45:58.307Z,79.75
2017-07-04T05:46:58.287Z,79.47
2017-07-04T05:47:58.614Z,79.08
2017-07-04T05:48:58.301Z,78.42
2017-07-04T05:49:58.275Z,78.89
2017-07-04T05:50:58.273Z,78.99
2017-07-04T05:51:58.600Z,79.37
2017-07-04T05:52:58.264Z,78.99
2017-07-04T05:53:58.273Z,80.33
2017-07-04T05:54:58.262Z,79.85
2017-07-04T05:55:58.580Z,80.04
2017-07-04T05:56:58.576Z,80.81
2017-07-04T05:57:58.246Z,81.2
2017-07-04T05:58:58.601Z,80.52
2017-07-04T05:59:58.576Z,80.04
2017-07-04T06:00:58.236Z,79.85
2017-07-04T06:01:58.230Z,79.95
2017-07-04T06:02:58.227Z,79.66
2017-07-04T06:03:58.553Z,79.51
2017-07-04T06:04:58.219Z,79.08
2017-07-04T06:05:58.216Z,79.32
2017-07-04T06:06:58.545Z,78.55
2017-07-04T06:07:58.208Z,78.84
2017-07-04T06:08:58.532Z,76.92
2017-07-04T06:09:58.201Z,77.02
2017-07-04T06:10:58.196Z,76.92
2017-07-04T06:11:58.200Z,77.11
2017-07-04T06:12:58.519Z,76.92
2017-07-04T06:13:58.186Z,76.25
2017-07-04T06:14:58.513Z,77.02
2017-07-04T06:15:58.179Z,76.73
2017-07-04T06:16:58.505Z,76.54
2017-07-04T06:17:58.505Z,76.25
2017-07-04T06:18:58.169Z,76.54
2017-07-04T06:19:58.493Z,76
2017-07-04T06:20:58.162Z,75.43
2017-07-04T06:21:58.491Z,75.71
2017-07-04T06:22:58.154Z,74.57
2017-07-04T06:23:58.151Z,75.62
2017-07-04T06:24:58.495Z,75.81
2017-07-04T06:25:58.490Z,76.48
2017-07-04T06:26:58.474Z,76.1
2017-07-04T06:27:58.467Z,74.89
2017-07-04T06:28:58.137Z,73.93
2017-07-04T06:29:58.133Z,73.26
2017-07-04T06:30:58.130Z,73.74
2017-07-04T06:31:58.456Z,74.12
2017-07-04T06:32:58.126Z,73.26
2017-07-04T06:33:58.123Z,72.68
2017-07-04T06:34:58.446Z,70.61
2017-07-04T06:35:58.115Z,70.42
2017-07-04T06:36:58.112Z,70.61
2017-07-04T06:37:58.111Z,71.57
2017-07-04T06:38:58.105Z,71.19
2017-07-04T06:39:58.105Z,70.8
2017-07-04T06:40:58.436Z,70.7
2017-07-04T06:41:58.114Z,72.24
2017-07-04T06:42:58.426Z,72.33
2017-07-04T06:43:58.422Z,71.76
2017-07-04T06:44:58.419Z,68.73
2017-07-04T06:45:58.422Z,68.88
2017-07-04T06:46:58.419Z,69.36
2017-07-04T06:47:58.412Z,69.36
2017-07-04T06:48:58.083Z,70.51
2017-07-04T06:49:58.083Z,70.42
2017-07-04T06:50:58.079Z,70.99
2017-07-04T06:51:58.076Z,70.99
2017-07-04T06:52:58.075Z,69.36
2017-07-04T06:53:58.071Z,70.32
2017-07-04T06:54:58.068Z,70.99
2017-07-04T06:55:58.067Z,71.95
2017-07-04T06:56:58.065Z,72.33
2017-07-04T06:57:58.064Z,71.95
2017-07-04T06:58:58.062Z,72.53
2017-07-04T06:59:58.059Z,71.89
2017-07-04T07:00:58.057Z,71.12
2017-07-04T07:01:58.393Z,70.84
2017-07-04T07:02:58.051Z,69.59
2017-07-04T07:03:58.049Z,68.73
2017-07-04T07:04:58.048Z,69.59
2017-07-04T07:05:58.045Z,69.3
2017-07-04T07:06:58.045Z,68.37
2017-07-04T07:07:58.041Z,67.9
2017-07-04T07:08:58.367Z,66.58
2017-07-04T07:09:58.037Z,64.85
2017-07-04T07:10:58.037Z,63.64
2017-07-04T07:11:58.041Z,63.73
2017-07-04T07:12:58.034Z,65.01
2017-07-04T07:13:58.032Z,64.43
2017-07-04T07:14:58.031Z,64.34
2017-07-04T07:15:58.385Z,64.25
2017-07-04T07:16:58.029Z,63.28
2017-07-04T07:17:58.026Z,63.86
2017-07-04T07:18:58.025Z,63.28
2017-07-04T07:19:58.035Z,62.71
2017-07-04T07:20:58.350Z,61.74
2017-07-04T07:21:58.374Z,62.06
2017-07-04T07:22:58.350Z,62.06
2017-07-04T07:23:58.019Z,60.72
2017-07-04T07:24:58.030Z,59.75
2017-07-04T07:25:58.051Z,59.59
2017-07-04T07:26:58.034Z,59.88
2017-07-04T07:27:58.017Z,59.04
2017-07-04T07:28:58.346Z,57.12
2017-07-04T07:29:58.017Z,58.08
2017-07-04T07:30:58.017Z,58.56
2017-07-04T07:31:58.346Z,58.17
2017-07-04T07:32:58.341Z,59.33
2017-07-04T07:33:58.014Z,58.56
2017-07-04T07:34:58.025Z,58.2
2017-07-04T07:35:58.340Z,56.66
2017-07-04T07:36:58.013Z,55.89
2017-07-04T07:37:58.013Z,56.76
2017-07-04T07:38:58.011Z,56.76
2017-07-04T07:39:58.341Z,55.31
2017-07-04T07:40:58.011Z,55.22
2017-07-04T07:41:58.020Z,56.95
2017-07-04T07:42:58.014Z,54.52
2017-07-04T07:43:58.349Z,55.19
2017-07-04T07:44:58.013Z,55.35
2017-07-04T07:45:58.012Z,56.03
2017-07-04T07:46:58.342Z,56.77
2017-07-04T07:47:58.343Z,55.07
2017-07-04T07:48:58.013Z,53.29
2017-07-04T07:49:58.012Z,54.66
2017-07-04T07:50:58.343Z,54.4
2017-07-04T07:51:58.018Z,53.05
2017-07-04T07:52:58.346Z,52.4
2017-07-04T07:53:58.344Z,51.95
2017-07-04T07:54:58.022Z,50.5
2017-07-04T07:55:58.015Z,49.73
2017-07-04T07:56:58.016Z,49.7
2017-07-04T07:57:58.018Z,51.32
2017-07-04T07:58:58.020Z,51.77
2017-07-04T07:59:58.349Z,52.16
2017-07-04T08:00:58.033Z,53.22
2017-07-04T08:01:58.389Z,52.91
2017-07-04T08:02:58.024Z,53.67
2017-07-04T08:03:58.023Z,53.67
2017-07-04T08:04:58.353Z,53.48
2017-07-04T08:05:58.351Z,55
2017-07-04T08:06:58.355Z,55
2017-07-04T08:07:58.354Z,54.9
2017-07-04T08:08:58.026Z,54.61
2017-07-04T08:09:58.030Z,57.02
2017-07-04T08:10:58.353Z,55.77
2017-07-04T08:11:58.028Z,54.44
2017-07-04T08:12:58.029Z,54.18
2017-07-04T08:13:58.033Z,53.8
2017-07-04T08:14:58.356Z,53.83
2017-07-04T08:15:58.355Z,53.25
2017-07-04T08:16:58.377Z,53.15
2017-07-04T08:17:58.033Z,51.99
2017-07-04T08:18:58.039Z,52.28
2017-07-04T08:19:58.033Z,52.93
2017-07-04T08:20:58.056Z,54.38
2017-07-04T08:21:58.057Z,55.92
2017-07-04T08:22:58.359Z,56.11
2017-07-04T08:23:58.366Z,55.44
2017-07-04T08:24:58.038Z,54.98
2017-07-04T08:25:58.041Z,52.93
2017-07-04T08:26:58.367Z,52.25
2017-07-04T08:27:58.043Z,53.13
2017-07-04T08:28:58.370Z,53.58
2017-07-04T08:29:58.371Z,54.25
2017-07-04T08:30:58.054Z,54.47
2017-07-04T08:31:58.372Z,53.22
2017-07-04T08:32:58.375Z,53.51
2017-07-04T08:33:58.376Z,53.61
2017-07-04T08:34:58.051Z,54.4
2017-07-04T08:35:58.050Z,53.53
2017-07-04T08:36:58.375Z,53.34
2017-07-04T08:37:58.051Z,55.46
2017-07-04T08:38:58.061Z,54.5
2017-07-04T08:39:58.074Z,54.88
2017-07-04T08:40:58.071Z,50.45
2017-07-04T08:41:58.382Z,50.16
2017-07-04T08:42:58.055Z,50.26
2017-07-04T08:43:58.385Z,51.41
2017-07-04T08:44:58.059Z,53.63
2017-07-04T08:45:58.060Z,52.09
2017-07-04T08:46:58.061Z,51.87
2017-07-04T08:47:58.061Z,52.16
2017-07-04T08:48:58.390Z,52.35
2017-07-04T08:49:58.394Z,53.22
2017-07-04T08:50:58.072Z,52.25
2017-07-04T08:51:58.066Z,51.1
2017-07-04T08:52:58.396Z,49.84
2017-07-04T08:53:58.067Z,52.19
2017-07-04T08:54:58.070Z,51.12
2017-07-04T08:55:58.395Z,51.03
2017-07-04T08:56:58.068Z,49.87
2017-07-04T08:57:58.072Z,49.7
2017-07-04T08:58:58.398Z,48.64
2017-07-04T08:59:58.402Z,49.6
2017-07-04T09:00:58.077Z,50.26
2017-07-04T09:01:58.095Z,52.31
2017-07-04T09:02:58.402Z,53.66
2017-07-04T09:03:58.079Z,49.9
2017-07-04T09:04:58.409Z,49.6
2017-07-04T09:05:58.082Z,49.99
2017-07-04T09:06:58.083Z,51.53
2017-07-04T09:07:58.083Z,50.28
2017-07-04T09:08:58.414Z,48.66
2017-07-04T09:09:58.415Z,47.99
2017-07-04T09:10:58.089Z,46.9
2017-07-04T09:11:58.414Z,48.54
2017-07-04T09:12:58.091Z,49.19
2017-07-04T09:13:58.416Z,49.96
2017-07-04T09:14:58.116Z,48.61
2017-07-04T09:15:58.419Z,47.65
2017-07-04T09:16:58.096Z,48.42
2017-07-04T09:17:58.422Z,48.33
2017-07-04T09:18:58.100Z,49.58
2017-07-04T09:19:58.101Z,51.99
2017-07-04T09:20:58.107Z,51.12
2017-07-04T09:21:58.430Z,51.32
2017-07-04T09:22:58.102Z,51.22
2017-07-04T09:23:58.453Z,50.06
2017-07-04T09:24:58.104Z,49.77
2017-07-04T09:25:58.434Z,48.93
2017-07-04T09:26:58.108Z,47.87
2017-07-04T09:27:58.113Z,46.92
2017-07-04T09:28:58.444Z,46.54
2017-07-04T09:29:58.114Z,48.76
2017-07-04T09:30:58.117Z,49.02
2017-07-04T09:31:58.445Z,49.7
2017-07-04T09:32:58.121Z,51.15
2017-07-04T09:33:58.129Z,48.44
2017-07-04T09:34:58.449Z,46.9
2017-07-04T09:35:58.123Z,48.16
2017-07-04T09:36:58.145Z,48.54
2017-07-04T09:37:58.128Z,48.64
2017-07-04T09:38:58.461Z,49.12
2017-07-04T09:39:58.129Z,49.9
2017-07-04T09:40:58.463Z,50.09
2017-07-04T09:41:58.130Z,49.8
2017-07-04T09:42:58.463Z,50.09
2017-07-04T09:43:58.134Z,49.9
2017-07-04T09:44:58.137Z,49.6
2017-07-04T09:45:58.157Z,49.58
2017-07-04T09:46:58.140Z,51.22
2017-07-04T09:47:58.484Z,49.96
2017-07-04T09:48:58.470Z,50.54
2017-07-04T09:49:58.143Z,49.96
2017-07-04T09:50:58.142Z,49.48
2017-07-04T09:51:58.160Z,48.64
2017-07-04T09:52:58.166Z,47.38
2017-07-04T09:53:58.173Z,48.44
2017-07-04T09:54:58.499Z,49.9
2017-07-04T09:55:58.150Z,50.09
2017-07-04T09:56:58.152Z,48.06
2017-07-04T09:57:58.153Z,47.77
2017-07-04T09:58:58.175Z,47.75
2017-07-04T09:59:58.157Z,48.59
2017-07-04T10:00:58.485Z,49.65
2017-07-04T10:01:58.493Z,51.1
2017-07-04T10:02:58.489Z,51.75
2017-07-04T10:03:58.500Z,52.81
2017-07-04T10:04:58.167Z,51.36
2017-07-04T10:05:58.164Z,50.62
2017-07-04T10:06:58.165Z,50.84
2017-07-04T10:07:58.167Z,51.92
2017-07-04T10:08:58.168Z,49.9
2017-07-04T10:09:58.515Z,49.73
2017-07-04T10:10:58.169Z,49.53
2017-07-04T10:11:58.169Z,49.24
2017-07-04T10:12:58.173Z,50.13
2017-07-04T10:13:58.502Z,48.11
2017-07-04T10:14:58.503Z,47.53
2017-07-04T10:15:58.175Z,48.71
2017-07-04T10:16:58.180Z,49.19
2017-07-04T10:17:58.507Z,48.52
2017-07-04T10:18:58.553Z,48.71
2017-07-04T10:19:58.187Z,47.24
2017-07-04T10:20:58.185Z,47.14
2017-07-04T10:21:58.521Z,46.92
2017-07-04T10:22:58.189Z,47.38
2017-07-04T10:23:58.189Z,47.65
2017-07-04T10:24:58.519Z,50.93
2017-07-04T10:25:58.193Z,51.29
2017-07-04T10:26:58.520Z,53.48
2017-07-04T10:27:58.206Z,53.09
2017-07-04T10:28:58.194Z,54.13
2017-07-04T10:29:58.526Z,55.29
2017-07-04T10:30:58.196Z,55.57
2017-07-04T10:31:58.199Z,56.82
2017-07-04T10:32:58.198Z,60.58
2017-07-04T10:33:58.200Z,60
2017-07-04T10:34:58.201Z,60.49
2017-07-04T10:35:58.201Z,56.82
2017-07-04T10:36:58.530Z,55.51
2017-07-04T10:37:58.205Z,55.31
2017-07-04T10:38:58.204Z,53.48
2017-07-04T10:39:58.205Z,55.24
2017-07-04T10:40:58.252Z,55.63
2017-07-04T10:41:58.204Z,53.15
2017-07-04T10:42:58.557Z,49.77
2017-07-04T10:43:58.211Z,49.1
2017-07-04T10:44:58.208Z,50.64
2017-07-04T10:45:58.209Z,53.34
2017-07-04T10:46:58.207Z,53.75
2017-07-04T10:47:58.542Z,51.53
2017-07-04T10:48:58.211Z,47.48
2017-07-04T10:49:58.212Z,46.64
2017-07-04T10:50:58.214Z,47.5
2017-07-04T10:51:58.214Z,49.73
2017-07-04T10:52:58.214Z,47.53
2017-07-04T10:53:58.216Z,47.99
2017-07-04T10:54:58.217Z,48.37
2017-07-04T10:55:58.546Z,45.79
2017-07-04T10:56:58.220Z,47.43
2017-07-04T10:57:58.221Z,47.14
2017-07-04T10:58:58.222Z,47.24
2017-07-04T10:59:58.221Z,47.63
2017-07-04T11:00:58.225Z,46.66
2017-07-04T11:01:58.225Z,45.4
2017-07-04T11:02:58.225Z,45.11
2017-07-04T11:03:58.229Z,44.24
2017-07-04T11:04:58.229Z,47.41
2017-07-04T11:05:58.232Z,46.06
2017-07-04T11:06:58.248Z,45.76
2017-07-04T11:07:58.244Z,46.83
2017-07-04T11:08:58.580Z,46.25
2017-07-04T11:09:58.234Z,47.29
2017-07-04T11:10:58.239Z,47.58
2017-07-04T11:11:58.239Z,51.32
2017-07-04T11:12:58.241Z,50.35
2017-07-04T11:13:58.243Z,48.59
2017-07-04T11:14:58.244Z,48.59
2017-07-04T11:15:58.572Z,48.49
2017-07-04T11:16:58.245Z,48.88
2017-07-04T11:17:58.245Z,48.52
2017-07-04T11:18:58.575Z,50.06
2017-07-04T11:19:58.249Z,51.41
2017-07-04T11:20:58.251Z,50.54
2017-07-04T11:21:58.579Z,48.13
2017-07-04T11:22:58.253Z,49.96
2017-07-04T11:23:58.253Z,50.35
2017-07-04T11:24:58.255Z,51
2017-07-04T11:25:58.255Z,49.94
2017-07-04T11:26:58.257Z,51.2
2017-07-04T11:27:58.593Z,51.56
2017-07-04T11:28:58.269Z,51.56
2017-07-04T11:29:58.593Z,52.11
2017-07-04T11:30:58.281Z,51.14
2017-07-04T11:31:58.589Z,51.82
2017-07-04T11:32:58.591Z,53.43
2017-07-04T11:33:58.269Z,53.43
2017-07-04T11:34:58.265Z,54.2
2017-07-04T11:35:58.593Z,53.33
2017-07-04T11:36:58.266Z,52.27
2017-07-04T11:37:58.266Z,53.02
2017-07-04T11:38:58.597Z,53.31
2017-07-04T11:39:58.599Z,53.21
2017-07-04T11:40:58.266Z,54.78
2017-07-04T11:41:58.291Z,53.91
2017-07-04T11:42:58.267Z,53.55
2017-07-04T11:43:58.267Z,53.74
2017-07-04T11:44:58.594Z,54.22
2017-07-04T11:45:58.269Z,54.44
2017-07-04T11:46:58.267Z,52.33
2017-07-04T11:47:58.294Z,52.55
2017-07-04T11:48:58.273Z,51.58
2017-07-04T11:49:58.271Z,51.77
2017-07-04T11:50:58.599Z,51.8
2017-07-04T11:51:58.272Z,53.53
2017-07-04T11:52:58.274Z,48.23
2017-07-04T11:53:58.601Z,48.61
2017-07-04T11:54:58.631Z,49.58
2017-07-04T11:55:58.608Z,49.68
2017-07-04T11:56:58.281Z,49
2017-07-04T11:57:58.275Z,49.39
2017-07-04T11:58:58.277Z,48.49
2017-07-04T11:59:58.296Z,49.94
2017-07-04T12:00:58.290Z,49.84
2017-07-04T12:01:58.607Z,49.07
2017-07-04T12:02:58.283Z,50.04
2017-07-04T12:03:58.282Z,50.13
2017-07-04T12:04:58.613Z,51.29
2017-07-04T12:05:58.620Z,51.1
2017-07-04T12:06:58.632Z,51.56
2017-07-04T12:07:58.302Z,53.31
2017-07-04T12:08:58.614Z,55.05
2017-07-04T12:09:58.286Z,55.73
2017-07-04T12:10:58.289Z,55.73
2017-07-04T12:11:58.289Z,54.4
2017-07-04T12:12:58.288Z,52.95
2017-07-04T12:13:58.623Z,51.63
2017-07-04T12:14:58.291Z,51.15
2017-07-04T12:15:58.292Z,50.98
2017-07-04T12:16:58.623Z,51.73
2017-07-04T12:17:58.294Z,50.5
2017-07-04T12:18:58.312Z,50.59
2017-07-04T12:19:58.298Z,52.62
2017-07-04T12:20:58.630Z,52.14
2017-07-04T12:21:58.628Z,51.75
2017-07-04T12:22:58.303Z,53.59
2017-07-04T12:23:58.304Z,54.49
2017-07-04T12:24:58.635Z,53.71
2017-07-04T12:25:58.317Z,53.16
2017-07-04T12:26:58.636Z,51.23
2017-07-04T12:27:58.312Z,48.13
2017-07-04T12:28:58.313Z,49.07
2017-07-04T12:29:58.316Z,50.13
2017-07-04T12:30:58.339Z,48.59
2017-07-04T12:31:58.320Z,49.07
2017-07-04T12:32:58.672Z,49.75
2017-07-04T12:33:58.654Z,48.57
2017-07-04T12:34:58.654Z,47.7
2017-07-04T12:35:58.338Z,47.6
2017-07-04T12:36:58.330Z,48.66
2017-07-04T12:37:58.688Z,49.82
2017-07-04T12:38:58.333Z,48.74
2017-07-04T12:39:58.666Z,47.19
2017-07-04T12:40:58.666Z,46.9
2017-07-04T12:41:58.339Z,46.71
2017-07-04T12:42:58.339Z,47.65
2017-07-04T12:43:58.343Z,48.33
2017-07-04T12:44:58.692Z,47.85
2017-07-04T12:45:58.345Z,47.65
2017-07-04T12:46:58.673Z,49.48
2017-07-04T12:47:58.349Z,48.69
2017-07-04T12:48:58.352Z,49.94
2017-07-04T12:49:58.353Z,50.52
2017-07-04T12:50:58.353Z,48.97
2017-07-04T12:51:58.356Z,50.04
2017-07-04T12:52:58.683Z,49.84
2017-07-04T12:53:58.356Z,50.13
2017-07-04T12:54:58.699Z,51.2
2017-07-04T12:55:58.688Z,51.87